sensor_id;sensor_type;location;lat;lon;timestamp;pressure;altitude;pressure_sealevel;temperature;humidity
44481;BME280;30184;42.018;23.670;2024-01-06T00:01:34;91591.69;;;0.86;100.00
44481;BME280;30184;42.018;23.670;2024-01-06T00:04:03;91563.78;;;0.84;100.00
44481;BME280;30184;42.018;23.670;2024-01-06T00:06:32;91547.38;;;0.82;100.00
44481;BME280;30184;42.018;23.670;2024-01-06T00:09:02;91470.66;;;0.31;100.00
44481;BME280;30184;42.018;23.670;2024-01-06T00:11:32;91545.84;;;0.81;100.00
44481;BME280;30184;42.018;23.670;2024-01-06T00:14:01;91577.13;;;0.80;100.00
44481;BME280;30184;42.018;23.670;2024-01-06T00:16:30;91502.69;;;0.31;100.00
44481;BME280;30184;42.018;23.670;2024-01-06T00:18:59;91567.53;;;0.72;100.00
44481;BME280;30184;42.018;23.670;2024-01-06T00:21:30;91476.69;;;0.24;100.00
44481;BME280;30184;42.018;23.670;2024-01-06T00:23:59;91573.94;;;0.67;100.00
44481;BME280;30184;42.018;23.670;2024-01-06T00:26:28;91575.09;;;0.66;100.00
44481;BME280;30184;42.018;23.670;2024-01-06T00:28:59;91581.56;;;0.65;100.00
44481;BME280;30184;42.018;23.670;2024-01-06T00:31:28;91577.66;;;0.56;100.00
44481;BME280;30184;42.018;23.670;2024-01-06T00:33:57;91557.91;;;0.64;100.00
44481;BME280;30184;42.018;23.670;2024-01-06T00:36:26;91604.84;;;0.65;100.00
44481;BME280;30184;42.018;23.670;2024-01-06T00:38:55;91517.72;;;-0.24;100.00
44481;BME280;30184;42.018;23.670;2024-01-06T00:41:25;91623.16;;;0.66;100.00
44481;BME280;30184;42.018;23.670;2024-01-06T00:43:54;91594.91;;;0.65;100.00
44481;BME280;30184;42.018;23.670;2024-01-06T00:46:24;91637.63;;;0.65;100.00
44481;BME280;30184;42.018;23.670;2024-01-06T00:48:53;91581.56;;;0.65;100.00
44481;BME280;30184;42.018;23.670;2024-01-06T00:51:23;91610.19;;;0.65;100.00
44481;BME280;30184;42.018;23.670;2024-01-06T00:53:52;91633.47;;;0.64;100.00
44481;BME280;30184;42.018;23.670;2024-01-06T00:56:21;91612.81;;;0.61;100.00
44481;BME280;30184;42.018;23.670;2024-01-06T00:58:50;91557.66;;;0.39;100.00
44481;BME280;30184;42.018;23.670;2024-01-06T01:01:19;91547.56;;;0.18;100.00
44481;BME280;30184;42.018;23.670;2024-01-06T01:03:50;91596.63;;;0.47;100.00
44481;BME280;30184;42.018;23.670;2024-01-06T01:06:19;91476.69;;;-0.50;100.00
44481;BME280;30184;42.018;23.670;2024-01-06T01:08:48;91555.00;;;0.39;100.00
44481;BME280;30184;42.018;23.670;2024-01-06T01:11:18;91578.22;;;0.35;100.00
44481;BME280;30184;42.018;23.670;2024-01-06T01:13:47;91597.22;;;0.30;100.00
44481;BME280;30184;42.018;23.670;2024-01-06T01:16:17;91591.13;;;0.29;100.00
44481;BME280;30184;42.018;23.670;2024-01-06T01:18:46;91482.44;;;-0.48;100.00
44481;BME280;30184;42.018;23.670;2024-01-06T01:21:16;91555.28;;;0.27;100.00
44481;BME280;30184;42.018;23.670;2024-01-06T01:23:45;91593.00;;;0.25;100.00
44481;BME280;30184;42.018;23.670;2024-01-06T01:26:14;91581.91;;;0.23;100.00
44481;BME280;30184;42.018;23.670;2024-01-06T01:28:44;91562.81;;;0.21;100.00
44481;BME280;30184;42.018;23.670;2024-01-06T01:31:13;91586.44;;;0.19;100.00
44481;BME280;30184;42.018;23.670;2024-01-06T01:33:42;91403.50;;;-0.89;100.00
44481;BME280;30184;42.018;23.670;2024-01-06T01:36:12;91552.84;;;0.15;100.00
44481;BME280;30184;42.018;23.670;2024-01-06T01:38:42;91566.53;;;0.13;100.00
44481;BME280;30184;42.018;23.670;2024-01-06T01:41:12;91489.78;;;-0.38;100.00
44481;BME280;30184;42.018;23.670;2024-01-06T01:43:41;91490.66;;;-0.26;100.00
44481;BME280;30184;42.018;23.670;2024-01-06T01:46:10;91554.41;;;-0.14;100.00
44481;BME280;30184;42.018;23.670;2024-01-06T01:48:39;91523.31;;;-0.03;100.00
44481;BME280;30184;42.018;23.670;2024-01-06T01:51:09;91515.59;;;-0.12;100.00
44481;BME280;30184;42.018;23.670;2024-01-06T01:53:38;91593.09;;;0.03;100.00
44481;BME280;30184;42.018;23.670;2024-01-06T01:56:09;91539.72;;;-0.01;100.00
44481;BME280;30184;42.018;23.670;2024-01-06T01:58:38;91538.53;;;-0.04;100.00
44481;BME280;30184;42.018;23.670;2024-01-06T02:01:08;91521.22;;;-0.20;100.00
44481;BME280;30184;42.018;23.670;2024-01-06T02:03:41;91509.56;;;-0.39;100.00
44481;BME280;30184;42.018;23.670;2024-01-06T02:06:11;91541.16;;;-0.07;100.00
44481;BME280;30184;42.018;23.670;2024-01-06T02:08:40;91546.84;;;-0.09;100.00
44481;BME280;30184;42.018;23.670;2024-01-06T02:11:11;91555.63;;;-0.08;100.00
44481;BME280;30184;42.018;23.670;2024-01-06T02:13:39;91452.63;;;-0.57;100.00
44481;BME280;30184;42.018;23.670;2024-01-06T02:16:08;91521.69;;;-0.11;100.00
44481;BME280;30184;42.018;23.670;2024-01-06T02:18:37;91517.41;;;-0.19;100.00
44481;BME280;30184;42.018;23.670;2024-01-06T02:21:06;91482.84;;;-0.42;100.00
44481;BME280;30184;42.018;23.670;2024-01-06T02:23:37;91453.06;;;-0.81;100.00
44481;BME280;30184;42.018;23.670;2024-01-06T02:26:06;91552.88;;;-0.15;100.00
44481;BME280;30184;42.018;23.670;2024-01-06T02:28:35;91444.00;;;-0.77;100.00
44481;BME280;30184;42.018;23.670;2024-01-06T02:31:04;91537.25;;;-0.17;100.00
44481;BME280;30184;42.018;23.670;2024-01-06T02:33:34;91486.44;;;-0.61;100.00
44481;BME280;30184;42.018;23.670;2024-01-06T02:36:04;91477.16;;;-0.41;100.00
44481;BME280;30184;42.018;23.670;2024-01-06T02:38:33;91348.28;;;-1.26;100.00
44481;BME280;30184;42.018;23.670;2024-01-06T02:41:04;91501.31;;;-0.26;100.00
44481;BME280;30184;42.018;23.670;2024-01-06T02:43:33;91386.41;;;-1.18;100.00
44481;BME280;30184;42.018;23.670;2024-01-06T02:46:02;91440.88;;;-0.82;100.00
44481;BME280;30184;42.018;23.670;2024-01-06T02:48:31;91494.44;;;-0.61;100.00
44481;BME280;30184;42.018;23.670;2024-01-06T02:51:00;91493.78;;;-0.21;100.00
44481;BME280;30184;42.018;23.670;2024-01-06T02:53:30;91528.03;;;-0.23;100.00
44481;BME280;30184;42.018;23.670;2024-01-06T02:55:59;91526.84;;;-0.25;100.00
44481;BME280;30184;42.018;23.670;2024-01-06T02:58:29;91492.97;;;-0.25;100.00
44481;BME280;30184;42.018;23.670;2024-01-06T03:00:58;91514.28;;;-0.25;100.00
44481;BME280;30184;42.018;23.670;2024-01-06T03:03:28;91530.63;;;-0.30;100.00
44481;BME280;30184;42.018;23.670;2024-01-06T03:05:57;91452.78;;;-0.76;100.00
44481;BME280;30184;42.018;23.670;2024-01-06T03:08:26;91519.63;;;-0.25;100.00
44481;BME280;30184;42.018;23.670;2024-01-06T03:10:55;91449.50;;;-0.62;100.00
44481;BME280;30184;42.018;23.670;2024-01-06T03:13:24;91341.19;;;-1.44;100.00
44481;BME280;30184;42.018;23.670;2024-01-06T03:15:55;91534.53;;;-0.20;100.00
44481;BME280;30184;42.018;23.670;2024-01-06T03:18:24;91420.09;;;-0.69;100.00
44481;BME280;30184;42.018;23.670;2024-01-06T03:20:53;91393.34;;;-0.80;100.00
44481;BME280;30184;42.018;23.670;2024-01-06T03:23:22;91512.09;;;-0.19;100.00
44481;BME280;30184;42.018;23.670;2024-01-06T03:25:51;91510.56;;;-0.17;100.00
44481;BME280;30184;42.018;23.670;2024-01-06T03:28:23;91495.34;;;-0.16;100.00
44481;BME280;30184;42.018;23.670;2024-01-06T03:30:52;91470.63;;;-0.47;100.00
44481;BME280;30184;42.018;23.670;2024-01-06T03:33:23;91417.78;;;-0.74;100.00
44481;BME280;30184;42.018;23.670;2024-01-06T03:35:52;91473.59;;;-0.18;100.00
44481;BME280;30184;42.018;23.670;2024-01-06T03:38:22;91490.66;;;-0.26;100.00
44481;BME280;30184;42.018;23.670;2024-01-06T03:40:51;91460.66;;;-0.16;100.00
44481;BME280;30184;42.018;23.670;2024-01-06T03:43:20;91446.56;;;-0.17;100.00
44481;BME280;30184;42.018;23.670;2024-01-06T03:45:49;91456.72;;;-0.63;100.00
44481;BME280;30184;42.018;23.670;2024-01-06T03:48:18;91515.94;;;-0.13;100.00
44481;BME280;30184;42.018;23.670;2024-01-06T03:50:48;91297.16;;;-1.38;100.00
44481;BME280;30184;42.018;23.670;2024-01-06T03:53:18;91364.03;;;-0.80;100.00
44481;BME280;30184;42.018;23.670;2024-01-06T03:55:48;91448.94;;;-0.08;100.00
44481;BME280;30184;42.018;23.670;2024-01-06T03:58:17;91476.78;;;-0.06;100.00
44481;BME280;30184;42.018;23.670;2024-01-06T04:00:47;91442.88;;;-0.05;100.00
44481;BME280;30184;42.018;23.670;2024-01-06T04:03:16;91478.31;;;-0.05;100.00
44481;BME280;30184;42.018;23.670;2024-01-06T04:05:45;91446.44;;;-0.27;100.00
44481;BME280;30184;42.018;23.670;2024-01-06T04:08:15;91467.91;;;-0.17;100.00
44481;BME280;30184;42.018;23.670;2024-01-06T04:10:45;91457.22;;;-0.20;100.00
44481;BME280;30184;42.018;23.670;2024-01-06T04:13:15;91349.63;;;-0.76;100.00
44481;BME280;30184;42.018;23.670;2024-01-06T04:15:44;91442.13;;;-0.06;100.00
44481;BME280;30184;42.018;23.670;2024-01-06T04:18:13;91460.44;;;-0.04;100.00
44481;BME280;30184;42.018;23.670;2024-01-06T04:20:44;91477.19;;;-0.04;100.00
44481;BME280;30184;42.018;23.670;2024-01-06T04:23:13;91492.47;;;-0.01;100.00
44481;BME280;30184;42.018;23.670;2024-01-06T04:25:43;91341.72;;;-0.68;100.00
44481;BME280;30184;42.018;23.670;2024-01-06T04:28:12;91434.03;;;-0.13;100.00
44481;BME280;30184;42.018;23.670;2024-01-06T04:30:42;91487.56;;;0.05;100.00
44481;BME280;30184;42.018;23.670;2024-01-06T04:33:11;91466.88;;;-0.05;100.00
44481;BME280;30184;42.018;23.670;2024-01-06T04:35:40;91436.00;;;-0.06;100.00
44481;BME280;30184;42.018;23.670;2024-01-06T04:38:09;91459.81;;;0.13;100.00
44481;BME280;30184;42.018;23.670;2024-01-06T04:40:38;91389.28;;;-0.33;100.00
44481;BME280;30184;42.018;23.670;2024-01-06T04:43:09;91446.44;;;0.10;100.00
44481;BME280;30184;42.018;23.670;2024-01-06T04:45:38;91344.84;;;-0.59;100.00
44481;BME280;30184;42.018;23.670;2024-01-06T04:48:07;91470.56;;;0.20;100.00
44481;BME280;30184;42.018;23.670;2024-01-06T04:50:36;91392.94;;;-0.49;100.00
44481;BME280;30184;42.018;23.670;2024-01-06T04:53:05;91463.38;;;0.24;100.00
44481;BME280;30184;42.018;23.670;2024-01-06T04:55:35;91491.22;;;0.27;100.00
44481;BME280;30184;42.018;23.670;2024-01-06T04:58:04;91428.81;;;-0.02;100.00
44481;BME280;30184;42.018;23.670;2024-01-06T05:00:34;91350.34;;;-0.42;100.00
44481;BME280;30184;42.018;23.670;2024-01-06T05:03:04;91444.22;;;0.15;100.00
44481;BME280;30184;42.018;23.670;2024-01-06T05:05:34;91479.03;;;0.29;100.00
44481;BME280;30184;42.018;23.670;2024-01-06T05:08:03;91438.94;;;0.22;100.00
44481;BME280;30184;42.018;23.670;2024-01-06T05:10:32;91440.69;;;0.04;100.00
44481;BME280;30184;42.018;23.670;2024-01-06T05:13:02;91388.00;;;-0.10;100.00
44481;BME280;30184;42.018;23.670;2024-01-06T05:15:31;91461.47;;;0.28;100.00
44481;BME280;30184;42.018;23.670;2024-01-06T05:18:02;91438.16;;;0.18;100.00
44481;BME280;30184;42.018;23.670;2024-01-06T05:20:31;91295.13;;;-0.82;100.00
44481;BME280;30184;42.018;23.670;2024-01-06T05:23:00;91442.34;;;0.19;100.00
44481;BME280;30184;42.018;23.670;2024-01-06T05:25:29;91418.88;;;-0.05;100.00
44481;BME280;30184;42.018;23.670;2024-01-06T05:27:58;91389.34;;;-0.26;100.00
44481;BME280;30184;42.018;23.670;2024-01-06T05:30:27;91470.56;;;0.20;100.00
44481;BME280;30184;42.018;23.670;2024-01-06T05:32:57;91493.44;;;0.18;100.00
44481;BME280;30184;42.018;23.670;2024-01-06T05:35:27;91420.06;;;-0.03;100.00
44481;BME280;30184;42.018;23.670;2024-01-06T05:37:57;91485.03;;;0.19;100.00
44481;BME280;30184;42.018;23.670;2024-01-06T05:40:26;91458.34;;;0.16;100.00
44481;BME280;30184;42.018;23.670;2024-01-06T05:42:55;91453.00;;;0.19;100.00
44481;BME280;30184;42.018;23.670;2024-01-06T05:45:24;91438.53;;;0.20;100.00
44481;BME280;30184;42.018;23.670;2024-01-06T05:47:55;91404.97;;;-0.25;100.00
44481;BME280;30184;42.018;23.670;2024-01-06T05:50:24;91455.69;;;0.19;100.00
44481;BME280;30184;42.018;23.670;2024-01-06T05:52:54;91437.75;;;0.20;100.00
44481;BME280;30184;42.018;23.670;2024-01-06T05:55:24;91341.16;;;-0.48;100.00
44481;BME280;30184;42.018;23.670;2024-01-06T05:57:53;91377.22;;;-0.20;100.00
44481;BME280;30184;42.018;23.670;2024-01-06T06:00:22;91383.22;;;-0.27;100.00
44481;BME280;30184;42.018;23.670;2024-01-06T06:02:51;91455.22;;;0.10;100.00
44481;BME280;30184;42.018;23.670;2024-01-06T06:05:20;91294.41;;;-1.16;100.00
44481;BME280;30184;42.018;23.670;2024-01-06T06:07:49;91468.69;;;0.24;100.00
44481;BME280;30184;42.018;23.670;2024-01-06T06:10:20;91464.13;;;0.25;100.00
44481;BME280;30184;42.018;23.670;2024-01-06T06:12:49;91360.34;;;-0.31;100.00
44481;BME280;30184;42.018;23.670;2024-01-06T06:15:18;91466.44;;;0.26;100.00
44481;BME280;30184;42.018;23.670;2024-01-06T06:17:47;91424.06;;;0.18;100.00
44481;BME280;30184;42.018;23.670;2024-01-06T06:20:20;91432.88;;;0.25;100.00
44481;BME280;30184;42.018;23.670;2024-01-06T06:22:49;91432.13;;;0.28;100.00
44481;BME280;30184;42.018;23.670;2024-01-06T06:25:19;91422.59;;;0.27;100.00
44481;BME280;30184;42.018;23.670;2024-01-06T06:27:49;91424.97;;;0.36;100.00
44481;BME280;30184;42.018;23.670;2024-01-06T06:30:18;91458.53;;;0.41;100.00
44481;BME280;30184;42.018;23.670;2024-01-06T06:32:47;91468.50;;;0.47;100.00
44481;BME280;30184;42.018;23.670;2024-01-06T06:35:16;91455.97;;;0.51;100.00
44481;BME280;30184;42.018;23.670;2024-01-06T06:37:45;91386.59;;;0.07;100.00
44481;BME280;30184;42.018;23.670;2024-01-06T06:40:14;91360.78;;;0.18;100.00
44481;BME280;30184;42.018;23.670;2024-01-06T06:42:45;91403.53;;;0.29;100.00
44481;BME280;30184;42.018;23.670;2024-01-06T06:45:15;91414.50;;;0.68;100.00
44481;BME280;30184;42.018;23.670;2024-01-06T06:47:47;91276.66;;;-0.16;100.00
44481;BME280;30184;42.018;23.670;2024-01-06T06:50:16;91442.53;;;0.95;100.00
44481;BME280;30184;42.018;23.670;2024-01-06T06:52:46;91315.50;;;0.32;100.00
44481;BME280;30184;42.018;23.670;2024-01-06T06:55:15;91420.84;;;1.07;100.00
44481;BME280;30184;42.018;23.670;2024-01-06T06:57:47;91397.84;;;0.89;100.00
44481;BME280;30184;42.018;23.670;2024-01-06T07:00:17;91425.88;;;1.20;100.00
44481;BME280;30184;42.018;23.670;2024-01-06T07:02:47;91364.94;;;0.70;100.00
44481;BME280;30184;42.018;23.670;2024-01-06T07:05:16;91417.16;;;1.33;100.00
44481;BME280;30184;42.018;23.670;2024-01-06T07:07:46;91403.03;;;1.40;100.00
44481;BME280;30184;42.018;23.670;2024-01-06T07:10:17;91376.59;;;1.13;100.00
44481;BME280;30184;42.018;23.670;2024-01-06T07:12:48;91407.28;;;1.48;100.00
44481;BME280;30184;42.018;23.670;2024-01-06T07:15:17;91393.53;;;1.46;100.00
44481;BME280;30184;42.018;23.670;2024-01-06T07:17:46;91398.09;;;1.49;100.00
44481;BME280;30184;42.018;23.670;2024-01-06T07:20:16;91420.34;;;1.64;100.00
44481;BME280;30184;42.018;23.670;2024-01-06T07:22:45;91397.78;;;1.68;100.00
44481;BME280;30184;42.018;23.670;2024-01-06T07:25:14;91315.56;;;1.26;100.00
44481;BME280;30184;42.018;23.670;2024-01-06T07:27:44;91335.41;;;1.32;100.00
44481;BME280;30184;42.018;23.670;2024-01-06T07:30:14;91391.34;;;1.87;100.00
44481;BME280;30184;42.018;23.670;2024-01-06T07:32:44;91382.56;;;1.94;100.00
44481;BME280;30184;42.018;23.670;2024-01-06T07:35:13;91325.97;;;1.70;100.00
44481;BME280;30184;42.018;23.670;2024-01-06T07:37:42;91361.94;;;2.08;100.00
44481;BME280;30184;42.018;23.670;2024-01-06T07:40:12;91397.50;;;2.27;100.00
44481;BME280;30184;42.018;23.670;2024-01-06T07:42:45;91388.34;;;2.28;100.00
44481;BME280;30184;42.018;23.670;2024-01-06T07:45:16;91408.63;;;2.53;100.00
44481;BME280;30184;42.018;23.670;2024-01-06T07:47:45;91354.69;;;2.30;100.00
44481;BME280;30184;42.018;23.670;2024-01-06T07:50:14;91413.19;;;2.71;100.00
44481;BME280;30184;42.018;23.670;2024-01-06T07:52:43;91418.56;;;2.78;100.00
44481;BME280;30184;42.018;23.670;2024-01-06T07:55:13;91337.09;;;2.40;99.31
44481;BME280;30184;42.018;23.670;2024-01-06T07:57:42;91392.13;;;2.80;98.75
44481;BME280;30184;42.018;23.670;2024-01-06T08:00:12;91403.59;;;2.87;98.57
44481;BME280;30184;42.018;23.670;2024-01-06T08:02:44;91369.84;;;3.18;97.59
44481;BME280;30184;42.018;23.670;2024-01-06T08:05:14;91278.88;;;2.69;97.18
44481;BME280;30184;42.018;23.670;2024-01-06T08:07:43;91390.47;;;3.43;96.73
44481;BME280;30184;42.018;23.670;2024-01-06T08:10:13;91386.22;;;3.49;95.14
44481;BME280;30184;42.018;23.670;2024-01-06T08:12:42;91332.69;;;3.20;94.71
44481;BME280;30184;42.018;23.670;2024-01-06T08:15:11;91399.56;;;3.63;94.55
44481;BME280;30184;42.018;23.670;2024-01-06T08:17:40;91351.69;;;3.54;94.71
44481;BME280;30184;42.018;23.670;2024-01-06T08:20:12;91400.31;;;3.70;94.66
44481;BME280;30184;42.018;23.670;2024-01-06T08:22:41;91356.69;;;3.56;93.65
44481;BME280;30184;42.018;23.670;2024-01-06T08:25:10;91382.66;;;3.73;93.81
44481;BME280;30184;42.018;23.670;2024-01-06T08:27:41;91419.06;;;3.78;93.39
44481;BME280;30184;42.018;23.670;2024-01-06T08:30:11;91379.00;;;3.31;93.41
44481;BME280;30184;42.018;23.670;2024-01-06T08:32:40;91299.63;;;3.48;92.46
44481;BME280;30184;42.018;23.670;2024-01-06T08:35:09;91296.50;;;3.57;91.13
44481;BME280;30184;42.018;23.670;2024-01-06T08:37:40;91209.69;;;2.46;91.53
44481;BME280;30184;42.018;23.670;2024-01-06T08:40:10;91388.53;;;4.20;92.09
44481;BME280;30184;42.018;23.670;2024-01-06T08:42:39;91337.94;;;4.15;90.75
44481;BME280;30184;42.018;23.670;2024-01-06T08:45:09;91349.31;;;4.29;90.48
44481;BME280;30184;42.018;23.670;2024-01-06T08:47:47;91353.09;;;4.39;89.25
44481;BME280;30184;42.018;23.670;2024-01-06T08:50:16;91349.16;;;4.50;89.11
44481;BME280;30184;42.018;23.670;2024-01-06T08:52:47;91273.66;;;3.93;88.42
44481;BME280;30184;42.018;23.670;2024-01-06T08:55:16;91342.13;;;4.64;88.55
44481;BME280;30184;42.018;23.670;2024-01-06T08:57:45;91349.94;;;4.51;88.01
44481;BME280;30184;42.018;23.670;2024-01-06T09:00:18;91285.69;;;4.23;88.09
44481;BME280;30184;42.018;23.670;2024-01-06T09:02:48;91353.63;;;4.68;88.12
44481;BME280;30184;42.018;23.670;2024-01-06T09:05:17;91330.34;;;4.54;88.09
44481;BME280;30184;42.018;23.670;2024-01-06T09:07:48;91260.31;;;4.27;87.38
44481;BME280;30184;42.018;23.670;2024-01-06T09:10:20;91318.59;;;4.78;87.60
44481;BME280;30184;42.018;23.670;2024-01-06T09:12:50;91303.63;;;4.74;86.69
44481;BME280;30184;42.018;23.670;2024-01-06T09:15:19;91302.63;;;4.61;86.12
44481;BME280;30184;42.018;23.670;2024-01-06T09:17:49;91237.88;;;4.48;86.33
44481;BME280;30184;42.018;23.670;2024-01-06T09:20:21;91142.31;;;3.72;85.60
44481;BME280;30184;42.018;23.670;2024-01-06T09:22:52;91246.84;;;4.72;86.21
44481;BME280;30184;42.018;23.670;2024-01-06T09:25:22;91295.16;;;5.13;86.10
44481;BME280;30184;42.018;23.670;2024-01-06T09:27:52;91361.09;;;4.91;85.73
44481;BME280;30184;42.018;23.670;2024-01-06T09:30:21;91311.56;;;5.25;84.42
44481;BME280;30184;42.018;23.670;2024-01-06T09:32:50;91311.00;;;4.66;83.16
44481;BME280;30184;42.018;23.670;2024-01-06T09:35:20;91220.59;;;4.83;84.34
44481;BME280;30184;42.018;23.670;2024-01-06T09:37:56;91306.09;;;5.33;84.30
44481;BME280;30184;42.018;23.670;2024-01-06T09:40:26;91256.25;;;5.21;83.86
44481;BME280;30184;42.018;23.670;2024-01-06T09:42:55;91273.41;;;5.34;84.55
44481;BME280;30184;42.018;23.670;2024-01-06T09:45:24;91294.13;;;5.37;84.55
44481;BME280;30184;42.018;23.670;2024-01-06T09:47:54;91147.06;;;3.98;84.58
44481;BME280;30184;42.018;23.670;2024-01-06T09:50:24;91293.28;;;5.44;85.33
44481;BME280;30184;42.018;23.670;2024-01-06T09:52:55;91150.34;;;4.50;85.55
44481;BME280;30184;42.018;23.670;2024-01-06T09:55:34;91284.69;;;5.52;85.95
44481;BME280;30184;42.018;23.670;2024-01-06T09:58:04;91222.59;;;5.40;85.76
44481;BME280;30184;42.018;23.670;2024-01-06T10:00:34;91223.56;;;5.53;85.63
44481;BME280;30184;42.018;23.670;2024-01-06T10:03:03;91231.75;;;5.73;85.53
44481;BME280;30184;42.018;23.670;2024-01-06T10:05:35;91163.09;;;5.34;85.88
44481;BME280;30184;42.018;23.670;2024-01-06T10:08:06;91071.28;;;4.78;85.35
44481;BME280;30184;42.018;23.670;2024-01-06T10:10:36;91236.78;;;5.97;84.74
44481;BME280;30184;42.018;23.670;2024-01-06T10:13:06;91193.06;;;5.86;84.90
44481;BME280;30184;42.018;23.670;2024-01-06T10:15:36;90997.09;;;4.31;84.51
44481;BME280;30184;42.018;23.670;2024-01-06T10:18:06;91207.97;;;6.41;84.03
44481;BME280;30184;42.018;23.670;2024-01-06T10:20:36;91133.38;;;6.15;83.70
44481;BME280;30184;42.018;23.670;2024-01-06T10:23:07;91200.75;;;6.58;81.43
44481;BME280;30184;42.018;23.670;2024-01-06T10:25:36;91179.72;;;6.49;81.31
44481;BME280;30184;42.018;23.670;2024-01-06T10:28:07;91072.56;;;5.71;80.17
44481;BME280;30184;42.018;23.670;2024-01-06T10:30:37;91026.59;;;5.61;79.81
44481;BME280;30184;42.018;23.670;2024-01-06T10:33:10;91168.53;;;6.70;79.72
44481;BME280;30184;42.018;23.670;2024-01-06T10:35:42;91186.19;;;6.75;78.67
44481;BME280;30184;42.018;23.670;2024-01-06T10:38:14;91178.22;;;6.88;79.43
44481;BME280;30184;42.018;23.670;2024-01-06T10:40:56;91148.78;;;6.57;78.88
44481;BME280;30184;42.018;23.670;2024-01-06T10:43:26;91188.75;;;7.02;78.46
44481;BME280;30184;42.018;23.670;2024-01-06T10:45:56;91076.63;;;6.45;77.91
44481;BME280;30184;42.018;23.670;2024-01-06T10:48:30;91147.41;;;7.25;76.66
44481;BME280;30184;42.018;23.670;2024-01-06T10:51:01;91130.53;;;7.21;75.95
44481;BME280;30184;42.018;23.670;2024-01-06T10:53:40;91160.75;;;7.32;77.24
44481;BME280;30184;42.018;23.670;2024-01-06T10:56:10;91112.22;;;7.12;75.05
44481;BME280;30184;42.018;23.670;2024-01-06T10:58:45;91127.94;;;7.33;75.75
44481;BME280;30184;42.018;23.670;2024-01-06T11:01:20;91125.84;;;7.41;75.47
44481;BME280;30184;42.018;23.670;2024-01-06T11:03:50;91052.34;;;7.01;75.39
44481;BME280;30184;42.018;23.670;2024-01-06T11:06:20;91137.50;;;7.54;75.58
44481;BME280;30184;42.018;23.670;2024-01-06T11:09:01;91108.16;;;7.56;75.58
44481;BME280;30184;42.018;23.670;2024-01-06T11:11:34;91029.66;;;7.15;74.92
44481;BME280;30184;42.018;23.670;2024-01-06T11:14:22;91096.59;;;7.56;75.87
44481;BME280;30184;42.018;23.670;2024-01-06T11:16:52;91115.56;;;7.52;76.56
44481;BME280;30184;42.018;23.670;2024-01-06T11:19:42;91137.50;;;7.70;76.82
44481;BME280;30184;42.018;23.670;2024-01-06T11:22:21;91129.16;;;7.65;77.21
44481;BME280;30184;42.018;23.670;2024-01-06T11:24:55;91112.34;;;7.73;77.33
44481;BME280;30184;42.018;23.670;2024-01-06T11:27:26;91091.09;;;7.75;77.19
44481;BME280;30184;42.018;23.670;2024-01-06T11:29:57;91091.69;;;7.67;77.76
44481;BME280;30184;42.018;23.670;2024-01-06T11:32:29;91024.59;;;7.33;78.24
44481;BME280;30184;42.018;23.670;2024-01-06T11:35:06;91013.41;;;7.18;78.68
44481;BME280;30184;42.018;23.670;2024-01-06T11:37:51;91063.75;;;7.57;78.97
44481;BME280;30184;42.018;23.670;2024-01-06T11:40:31;91022.94;;;7.23;79.45
44481;BME280;30184;42.018;23.670;2024-01-06T11:43:03;90892.06;;;6.33;79.83
44481;BME280;30184;42.018;23.670;2024-01-06T11:45:34;91047.31;;;7.19;80.67
44481;BME280;30184;42.018;23.670;2024-01-06T11:48:05;90944.41;;;6.52;81.77
44481;BME280;30184;42.018;23.670;2024-01-06T11:50:36;91023.38;;;7.21;82.39
44481;BME280;30184;42.018;23.670;2024-01-06T11:53:07;91033.56;;;7.46;82.43
44481;BME280;30184;42.018;23.670;2024-01-06T11:55:40;91068.91;;;7.52;82.97
44481;BME280;30184;42.018;23.670;2024-01-06T11:58:10;91035.50;;;7.45;83.19
44481;BME280;30184;42.018;23.670;2024-01-06T12:00:39;90995.16;;;7.55;83.21
44481;BME280;30184;42.018;23.670;2024-01-06T12:03:09;90998.81;;;7.32;83.63
44481;BME280;30184;42.018;23.670;2024-01-06T12:05:39;91024.69;;;7.78;83.53
44481;BME280;30184;42.018;23.670;2024-01-06T12:08:08;90941.47;;;7.28;83.92
44481;BME280;30184;42.018;23.670;2024-01-06T12:10:38;90900.19;;;6.98;84.13
44481;BME280;30184;42.018;23.670;2024-01-06T12:13:11;90950.56;;;7.50;84.24
44481;BME280;30184;42.018;23.670;2024-01-06T12:15:43;91013.41;;;7.96;84.94
44481;BME280;30184;42.018;23.670;2024-01-06T12:18:14;90950.19;;;7.64;84.77
44481;BME280;30184;42.018;23.670;2024-01-06T12:20:44;91007.19;;;8.11;84.78
44481;BME280;30184;42.018;23.670;2024-01-06T12:23:24;90989.50;;;8.23;84.86
44481;BME280;30184;42.018;23.670;2024-01-06T12:25:54;90931.47;;;7.86;84.92
44481;BME280;30184;42.018;23.670;2024-01-06T12:28:26;90889.66;;;7.91;84.62
44481;BME280;30184;42.018;23.670;2024-01-06T12:30:56;90924.88;;;8.29;85.06
44481;BME280;30184;42.018;23.670;2024-01-06T12:33:25;90932.03;;;8.35;84.88
44481;BME280;30184;42.018;23.670;2024-01-06T12:35:55;90851.44;;;8.05;84.71
44481;BME280;30184;42.018;23.670;2024-01-06T12:38:37;90989.97;;;9.01;84.54
44481;BME280;30184;42.018;23.670;2024-01-06T12:41:06;90985.44;;;8.98;84.79
44481;BME280;30184;42.018;23.670;2024-01-06T12:43:37;91003.81;;;9.03;86.32
44481;BME280;30184;42.018;23.670;2024-01-06T12:46:06;90882.81;;;8.28;86.57
44481;BME280;30184;42.018;23.670;2024-01-06T12:48:42;91008.38;;;9.06;86.67
44481;BME280;30184;42.018;23.670;2024-01-06T12:51:12;90973.84;;;9.10;87.10
44481;BME280;30184;42.018;23.670;2024-01-06T12:53:45;90994.41;;;8.95;87.14
44481;BME280;30184;42.018;23.670;2024-01-06T12:56:15;90911.94;;;8.87;87.16
44481;BME280;30184;42.018;23.670;2024-01-06T12:58:47;91021.81;;;9.35;87.01
44481;BME280;30184;42.018;23.670;2024-01-06T13:01:16;90960.16;;;9.39;86.86
44481;BME280;30184;42.018;23.670;2024-01-06T13:03:46;90982.81;;;9.45;86.56
44481;BME280;30184;42.018;23.670;2024-01-06T13:06:15;90870.75;;;8.32;86.41